CheckWX is a tool to help pilots better visualize weather data.  It is not intended as a substitute for an official pre-flight weather briefing.

21:02:15 UTC

KGCK METAR
Garden City Regional Airport
Garden City, Kansas, USA
Current

8 mins ago

KGCK 232054Z 04009KT 2SM -RA BR OVC008 12/11 A2992 RMK AO2 LTG DSNT NE AND SW RAB19 TSB13E24 CIG 008V011 SLP124 P0001 60003 T01170111 56012
Observed
May-23 @ 20:54 UTC
Wind
  • 040° at 9 KTS
Visibility
2 SM
Flight Rules
IFR
Conditions
Light Rain, Mist
Cloud Levels
  • Overcast at 800' AGL
Temperature
12°C / 54°F
Dewpoint
11°C / 52°F
Humidity
94%
Altimeter
29.92" Hg
Pressure
1013.22 hPa
Current Rain
0.01"
Previous

32 mins ago

KGCK 232030Z 03011KT 6SM -RA BR OVC010 12/11 A2993 RMK AO2 RAB19 TSB13E24 CIG 009V013 TS DSNT E MOV N P0001 T01170111
Observed
May-23 @ 20:30 UTC
Wind
  • 030° at 11 KTS
Visibility
6 SM
Flight Rules
MVFR
Conditions
Light Rain, Mist
Cloud Levels
  • Overcast at 1,000' AGL
Temperature
12°C / 54°F
Dewpoint
11°C / 52°F
Humidity
94%
Altimeter
29.93" Hg
Pressure
1013.52 hPa
Current Rain
0.01"
Previous

2 hours ago

KGCK 231854Z 07021G30KT 10SM OVC014 11/09 A2990 RMK AO2 PK WND 08034/1756 LTG DSNT ALQDS RAE03 TSE01 PRESFR SLP116 P0000 T01110094
Observed
May-23 @ 18:54 UTC
Wind
  • 070° at 21 KTS
  • Gusting to 30 KTS
Visibility
10 SM
Flight Rules
MVFR
Cloud Levels
  • Overcast at 1,400' AGL
Temperature
11°C / 52°F
Dewpoint
C / 48°F
Humidity
88%
Altimeter
29.9" Hg
Pressure
1012.52 hPa
Current Rain
0.01"